sensor_id;sensor_type;location;lat;lon;timestamp;P1;durP1;ratioP1;P2;durP2;ratioP2
45534;SDS011;35892;48.798;9.698;2022-11-12T00:01:15;10.05;;;7.47;;
45534;SDS011;35892;48.798;9.698;2022-11-12T00:03:42;10.10;;;9.00;;
45534;SDS011;35892;48.798;9.698;2022-11-12T00:06:13;12.05;;;8.25;;
45534;SDS011;35892;48.798;9.698;2022-11-12T00:08:42;16.40;;;10.38;;
45534;SDS011;35892;48.798;9.698;2022-11-12T00:11:09;10.23;;;7.75;;
45534;SDS011;35892;48.798;9.698;2022-11-12T00:13:40;13.27;;;8.57;;
45534;SDS011;35892;48.798;9.698;2022-11-12T00:16:09;12.60;;;9.50;;
45534;SDS011;35892;48.798;9.698;2022-11-12T00:18:36;9.80;;;7.20;;
45534;SDS011;35892;48.798;9.698;2022-11-12T00:21:05;12.95;;;9.32;;
45534;SDS011;35892;48.798;9.698;2022-11-12T00:23:36;15.18;;;10.55;;
45534;SDS011;35892;48.798;9.698;2022-11-12T00:26:08;14.07;;;10.80;;
45534;SDS011;35892;48.798;9.698;2022-11-12T00:28:37;13.90;;;9.88;;
45534;SDS011;35892;48.798;9.698;2022-11-12T00:31:08;16.17;;;10.55;;
45534;SDS011;35892;48.798;9.698;2022-11-12T00:33:38;15.77;;;9.27;;
45534;SDS011;35892;48.798;9.698;2022-11-12T00:36:07;11.70;;;7.57;;
45534;SDS011;35892;48.798;9.698;2022-11-12T00:38:36;11.43;;;8.60;;
45534;SDS011;35892;48.798;9.698;2022-11-12T00:41:05;12.52;;;9.52;;
45534;SDS011;35892;48.798;9.698;2022-11-12T00:43:31;10.10;;;8.20;;
45534;SDS011;35892;48.798;9.698;2022-11-12T00:46:06;10.68;;;7.93;;
45534;SDS011;35892;48.798;9.698;2022-11-12T00:48:32;8.48;;;6.72;;
45534;SDS011;35892;48.798;9.698;2022-11-12T00:51:02;7.72;;;5.88;;
45534;SDS011;35892;48.798;9.698;2022-11-12T00:53:32;6.22;;;5.55;;
45534;SDS011;35892;48.798;9.698;2022-11-12T00:56:00;9.38;;;6.70;;
45534;SDS011;35892;48.798;9.698;2022-11-12T00:58:31;7.73;;;6.37;;
45534;SDS011;35892;48.798;9.698;2022-11-12T01:01:05;6.85;;;5.63;;
45534;SDS011;35892;48.798;9.698;2022-11-12T01:03:34;8.25;;;6.57;;
45534;SDS011;35892;48.798;9.698;2022-11-12T01:06:04;8.73;;;6.15;;
45534;SDS011;35892;48.798;9.698;2022-11-12T01:08:33;8.70;;;6.15;;
45534;SDS011;35892;48.798;9.698;2022-11-12T01:11:13;8.40;;;5.93;;
45534;SDS011;35892;48.798;9.698;2022-11-12T01:13:51;9.27;;;5.18;;
45534;SDS011;35892;48.798;9.698;2022-11-12T01:16:24;10.52;;;7.75;;
45534;SDS011;35892;48.798;9.698;2022-11-12T01:18:56;12.70;;;10.20;;
45534;SDS011;35892;48.798;9.698;2022-11-12T01:21:25;12.18;;;9.40;;
45534;SDS011;35892;48.798;9.698;2022-11-12T01:23:56;9.15;;;7.32;;
45534;SDS011;35892;48.798;9.698;2022-11-12T01:26:26;7.55;;;6.43;;
45534;SDS011;35892;48.798;9.698;2022-11-12T01:28:56;6.78;;;5.00;;
45534;SDS011;35892;48.798;9.698;2022-11-12T01:34:04;7.97;;;6.43;;
45534;SDS011;35892;48.798;9.698;2022-11-12T01:36:36;14.23;;;7.97;;
45534;SDS011;35892;48.798;9.698;2022-11-12T01:39:08;13.45;;;8.70;;
45534;SDS011;35892;48.798;9.698;2022-11-12T01:44:11;13.20;;;8.60;;
45534;SDS011;35892;48.798;9.698;2022-11-12T01:52:24;10.88;;;8.32;;
45534;SDS011;35892;48.798;9.698;2022-11-12T01:54:55;13.70;;;8.98;;
45534;SDS011;35892;48.798;9.698;2022-11-12T01:57:28;15.77;;;10.63;;
45534;SDS011;35892;48.798;9.698;2022-11-12T02:00:02;16.13;;;9.73;;
45534;SDS011;35892;48.798;9.698;2022-11-12T02:02:35;10.27;;;7.85;;
45534;SDS011;35892;48.798;9.698;2022-11-12T02:05:05;11.48;;;7.60;;
45534;SDS011;35892;48.798;9.698;2022-11-12T02:07:36;6.68;;;5.35;;
45534;SDS011;35892;48.798;9.698;2022-11-12T02:10:10;9.05;;;6.88;;
45534;SDS011;35892;48.798;9.698;2022-11-12T02:12:37;12.73;;;9.02;;
45534;SDS011;35892;48.798;9.698;2022-11-12T02:15:22;9.43;;;7.07;;
45534;SDS011;35892;48.798;9.698;2022-11-12T02:17:51;7.07;;;6.05;;
45534;SDS011;35892;48.798;9.698;2022-11-12T02:20:21;10.50;;;6.78;;
45534;SDS011;35892;48.798;9.698;2022-11-12T02:22:50;10.23;;;7.80;;
45534;SDS011;35892;48.798;9.698;2022-11-12T02:25:18;10.50;;;8.23;;
45534;SDS011;35892;48.798;9.698;2022-11-12T02:27:52;12.60;;;8.15;;
45534;SDS011;35892;48.798;9.698;2022-11-12T02:30:37;10.65;;;7.93;;
45534;SDS011;35892;48.798;9.698;2022-11-12T02:33:04;11.65;;;8.60;;
45534;SDS011;35892;48.798;9.698;2022-11-12T02:35:33;10.40;;;8.00;;
45534;SDS011;35892;48.798;9.698;2022-11-12T02:38:05;11.13;;;8.90;;
45534;SDS011;35892;48.798;9.698;2022-11-12T02:40:32;13.20;;;9.13;;
45534;SDS011;35892;48.798;9.698;2022-11-12T02:42:59;11.73;;;8.63;;
45534;SDS011;35892;48.798;9.698;2022-11-12T02:45:26;13.20;;;9.25;;
45534;SDS011;35892;48.798;9.698;2022-11-12T02:47:57;11.43;;;8.35;;
45534;SDS011;35892;48.798;9.698;2022-11-12T02:50:26;14.65;;;10.40;;
45534;SDS011;35892;48.798;9.698;2022-11-12T02:52:53;12.98;;;9.07;;
45534;SDS011;35892;48.798;9.698;2022-11-12T02:55:24;10.50;;;8.45;;
45534;SDS011;35892;48.798;9.698;2022-11-12T02:57:56;15.07;;;9.68;;
45534;SDS011;35892;48.798;9.698;2022-11-12T03:00:24;11.68;;;8.77;;
45534;SDS011;35892;48.798;9.698;2022-11-12T03:02:51;14.00;;;10.15;;
45534;SDS011;35892;48.798;9.698;2022-11-12T03:05:33;9.80;;;7.95;;
45534;SDS011;35892;48.798;9.698;2022-11-12T03:08:02;13.57;;;9.88;;
45534;SDS011;35892;48.798;9.698;2022-11-12T03:10:38;10.93;;;8.93;;
45534;SDS011;35892;48.798;9.698;2022-11-12T03:13:05;12.13;;;9.77;;
45534;SDS011;35892;48.798;9.698;2022-11-12T03:15:34;11.85;;;9.35;;
45534;SDS011;35892;48.798;9.698;2022-11-12T03:18:03;10.98;;;7.90;;
45534;SDS011;35892;48.798;9.698;2022-11-12T03:20:30;11.07;;;8.57;;
45534;SDS011;35892;48.798;9.698;2022-11-12T03:23:02;13.48;;;9.07;;
45534;SDS011;35892;48.798;9.698;2022-11-12T03:25:33;12.60;;;7.70;;
45534;SDS011;35892;48.798;9.698;2022-11-12T03:30:33;10.00;;;5.88;;
45534;SDS011;35892;48.798;9.698;2022-11-12T03:33:07;9.20;;;6.78;;
45534;SDS011;35892;48.798;9.698;2022-11-12T03:35:38;10.57;;;7.65;;
45534;SDS011;35892;48.798;9.698;2022-11-12T03:38:06;9.88;;;8.10;;
45534;SDS011;35892;48.798;9.698;2022-11-12T03:40:32;8.85;;;7.35;;
45534;SDS011;35892;48.798;9.698;2022-11-12T03:43:02;9.23;;;7.07;;
45534;SDS011;35892;48.798;9.698;2022-11-12T03:45:31;8.65;;;6.15;;
45534;SDS011;35892;48.798;9.698;2022-11-12T03:48:00;9.30;;;6.70;;
45534;SDS011;35892;48.798;9.698;2022-11-12T03:50:29;7.80;;;6.18;;
45534;SDS011;35892;48.798;9.698;2022-11-12T03:52:59;10.50;;;7.35;;
45534;SDS011;35892;48.798;9.698;2022-11-12T03:55:28;9.45;;;7.00;;
45534;SDS011;35892;48.798;9.698;2022-11-12T03:58:00;10.15;;;6.93;;
45534;SDS011;35892;48.798;9.698;2022-11-12T04:00:30;7.85;;;6.50;;
45534;SDS011;35892;48.798;9.698;2022-11-12T04:02:59;10.18;;;8.05;;
45534;SDS011;35892;48.798;9.698;2022-11-12T04:05:26;7.35;;;6.22;;
45534;SDS011;35892;48.798;9.698;2022-11-12T04:08:14;9.82;;;7.05;;
45534;SDS011;35892;48.798;9.698;2022-11-12T04:11:08;8.48;;;6.63;;
45534;SDS011;35892;48.798;9.698;2022-11-12T04:13:39;10.10;;;7.55;;
45534;SDS011;35892;48.798;9.698;2022-11-12T04:16:18;10.98;;;7.90;;
45534;SDS011;35892;48.798;9.698;2022-11-12T04:19:04;11.48;;;8.90;;
45534;SDS011;35892;48.798;9.698;2022-11-12T04:21:54;12.73;;;8.32;;
45534;SDS011;35892;48.798;9.698;2022-11-12T04:24:41;11.93;;;8.45;;
45534;SDS011;35892;48.798;9.698;2022-11-12T04:29:56;12.27;;;9.27;;
45534;SDS011;35892;48.798;9.698;2022-11-12T04:35:20;10.82;;;8.57;;
45534;SDS011;35892;48.798;9.698;2022-11-12T04:37:51;9.33;;;7.80;;
45534;SDS011;35892;48.798;9.698;2022-11-12T04:40:21;10.57;;;7.50;;
45534;SDS011;35892;48.798;9.698;2022-11-12T04:43:11;11.88;;;8.05;;
45534;SDS011;35892;48.798;9.698;2022-11-12T04:46:01;10.18;;;7.35;;
45534;SDS011;35892;48.798;9.698;2022-11-12T04:48:31;10.65;;;8.05;;
45534;SDS011;35892;48.798;9.698;2022-11-12T04:50:59;12.68;;;8.00;;
45534;SDS011;35892;48.798;9.698;2022-11-12T04:53:46;10.63;;;8.02;;
45534;SDS011;35892;48.798;9.698;2022-11-12T04:56:15;9.90;;;7.57;;
45534;SDS011;35892;48.798;9.698;2022-11-12T04:58:47;10.35;;;7.70;;
45534;SDS011;35892;48.798;9.698;2022-11-12T05:01:16;10.02;;;7.70;;
45534;SDS011;35892;48.798;9.698;2022-11-12T05:03:42;9.40;;;8.15;;
45534;SDS011;35892;48.798;9.698;2022-11-12T05:06:11;11.15;;;8.90;;
45534;SDS011;35892;48.798;9.698;2022-11-12T05:08:58;9.95;;;7.78;;
45534;SDS011;35892;48.798;9.698;2022-11-12T05:11:27;11.73;;;8.63;;
45534;SDS011;35892;48.798;9.698;2022-11-12T05:14:01;9.52;;;7.57;;
45534;SDS011;35892;48.798;9.698;2022-11-12T05:16:28;11.00;;;7.90;;
45534;SDS011;35892;48.798;9.698;2022-11-12T05:18:55;9.80;;;7.78;;
45534;SDS011;35892;48.798;9.698;2022-11-12T05:21:21;11.65;;;8.93;;
45534;SDS011;35892;48.798;9.698;2022-11-12T05:24:08;12.13;;;8.68;;
45534;SDS011;35892;48.798;9.698;2022-11-12T05:26:58;12.27;;;9.43;;
45534;SDS011;35892;48.798;9.698;2022-11-12T05:29:24;12.90;;;8.75;;
45534;SDS011;35892;48.798;9.698;2022-11-12T05:31:51;12.50;;;9.00;;
45534;SDS011;35892;48.798;9.698;2022-11-12T05:34:23;11.77;;;8.75;;
45534;SDS011;35892;48.798;9.698;2022-11-12T05:36:52;10.00;;;8.02;;
45534;SDS011;35892;48.798;9.698;2022-11-12T05:39:19;11.45;;;8.68;;
45534;SDS011;35892;48.798;9.698;2022-11-12T05:41:46;10.00;;;8.05;;
45534;SDS011;35892;48.798;9.698;2022-11-12T05:44:34;11.82;;;8.82;;
45534;SDS011;35892;48.798;9.698;2022-11-12T05:47:02;10.25;;;8.55;;
45534;SDS011;35892;48.798;9.698;2022-11-12T05:49:29;13.02;;;8.18;;
45534;SDS011;35892;48.798;9.698;2022-11-12T05:51:58;14.52;;;9.30;;
45534;SDS011;35892;48.798;9.698;2022-11-12T05:54:25;11.73;;;8.07;;
45534;SDS011;35892;48.798;9.698;2022-11-12T05:56:54;10.77;;;7.82;;
45534;SDS011;35892;48.798;9.698;2022-11-12T05:59:23;11.23;;;8.57;;
45534;SDS011;35892;48.798;9.698;2022-11-12T06:01:51;12.50;;;9.05;;
45534;SDS011;35892;48.798;9.698;2022-11-12T06:04:23;8.70;;;6.80;;
45534;SDS011;35892;48.798;9.698;2022-11-12T06:06:57;11.48;;;8.98;;
45534;SDS011;35892;48.798;9.698;2022-11-12T06:09:28;11.20;;;7.72;;
45534;SDS011;35892;48.798;9.698;2022-11-12T06:11:59;9.98;;;7.50;;
45534;SDS011;35892;48.798;9.698;2022-11-12T06:16:58;10.00;;;7.25;;
45534;SDS011;35892;48.798;9.698;2022-11-12T06:19:27;8.88;;;7.30;;
45534;SDS011;35892;48.798;9.698;2022-11-12T06:21:54;10.77;;;7.43;;
45534;SDS011;35892;48.798;9.698;2022-11-12T06:24:21;8.02;;;6.75;;
45534;SDS011;35892;48.798;9.698;2022-11-12T06:26:47;9.55;;;6.18;;
45534;SDS011;35892;48.798;9.698;2022-11-12T06:29:14;8.10;;;6.55;;
45534;SDS011;35892;48.798;9.698;2022-11-12T06:31:46;7.03;;;5.05;;
45534;SDS011;35892;48.798;9.698;2022-11-12T06:34:12;7.57;;;5.05;;
45534;SDS011;35892;48.798;9.698;2022-11-12T06:36:44;5.38;;;4.18;;
45534;SDS011;35892;48.798;9.698;2022-11-12T06:39:13;6.07;;;5.15;;
45534;SDS011;35892;48.798;9.698;2022-11-12T06:41:40;6.35;;;5.03;;
45534;SDS011;35892;48.798;9.698;2022-11-12T06:44:07;6.75;;;5.40;;
45534;SDS011;35892;48.798;9.698;2022-11-12T06:46:36;7.80;;;5.00;;
45534;SDS011;35892;48.798;9.698;2022-11-12T06:49:05;6.50;;;5.32;;
45534;SDS011;35892;48.798;9.698;2022-11-12T06:51:33;9.90;;;5.97;;
45534;SDS011;35892;48.798;9.698;2022-11-12T06:54:02;7.30;;;5.90;;
45534;SDS011;35892;48.798;9.698;2022-11-12T06:56:31;6.60;;;5.43;;
45534;SDS011;35892;48.798;9.698;2022-11-12T06:58:58;7.97;;;6.45;;
45534;SDS011;35892;48.798;9.698;2022-11-12T07:01:24;9.25;;;7.13;;
45534;SDS011;35892;48.798;9.698;2022-11-12T07:03:51;8.05;;;6.18;;
45534;SDS011;35892;48.798;9.698;2022-11-12T07:06:20;8.45;;;6.18;;
45534;SDS011;35892;48.798;9.698;2022-11-12T07:08:48;8.70;;;6.55;;
45534;SDS011;35892;48.798;9.698;2022-11-12T07:11:16;9.25;;;7.22;;
45534;SDS011;35892;48.798;9.698;2022-11-12T07:13:47;8.95;;;6.45;;
45534;SDS011;35892;48.798;9.698;2022-11-12T07:16:14;15.18;;;8.38;;
45534;SDS011;35892;48.798;9.698;2022-11-12T07:18:46;11.60;;;7.22;;
45534;SDS011;35892;48.798;9.698;2022-11-12T07:21:17;9.02;;;7.40;;
45534;SDS011;35892;48.798;9.698;2022-11-12T07:23:45;8.27;;;5.82;;
45534;SDS011;35892;48.798;9.698;2022-11-12T07:26:14;8.52;;;6.90;;
45534;SDS011;35892;48.798;9.698;2022-11-12T07:28:43;9.93;;;6.85;;
45534;SDS011;35892;48.798;9.698;2022-11-12T07:31:13;7.55;;;5.95;;
45534;SDS011;35892;48.798;9.698;2022-11-12T07:33:43;11.27;;;7.47;;
45534;SDS011;35892;48.798;9.698;2022-11-12T07:36:18;8.32;;;6.75;;
45534;SDS011;35892;48.798;9.698;2022-11-12T07:38:52;7.55;;;5.97;;
45534;SDS011;35892;48.798;9.698;2022-11-12T07:41:20;10.82;;;7.75;;
45534;SDS011;35892;48.798;9.698;2022-11-12T07:43:49;10.35;;;7.10;;
45534;SDS011;35892;48.798;9.698;2022-11-12T07:46:26;6.85;;;5.95;;
45534;SDS011;35892;48.798;9.698;2022-11-12T07:48:55;9.82;;;7.65;;
45534;SDS011;35892;48.798;9.698;2022-11-12T07:51:23;9.00;;;6.47;;
45534;SDS011;35892;48.798;9.698;2022-11-12T07:53:52;9.27;;;6.55;;
45534;SDS011;35892;48.798;9.698;2022-11-12T07:56:27;8.50;;;6.60;;
45534;SDS011;35892;48.798;9.698;2022-11-12T07:58:56;8.05;;;6.55;;
45534;SDS011;35892;48.798;9.698;2022-11-12T08:01:32;10.75;;;7.32;;
45534;SDS011;35892;48.798;9.698;2022-11-12T08:04:02;10.35;;;7.55;;
45534;SDS011;35892;48.798;9.698;2022-11-12T08:06:34;9.20;;;7.38;;
45534;SDS011;35892;48.798;9.698;2022-11-12T08:09:06;7.93;;;6.57;;
45534;SDS011;35892;48.798;9.698;2022-11-12T08:11:36;10.77;;;7.80;;
45534;SDS011;35892;48.798;9.698;2022-11-12T08:14:03;7.82;;;6.90;;
45534;SDS011;35892;48.798;9.698;2022-11-12T08:16:32;8.63;;;6.65;;
45534;SDS011;35892;48.798;9.698;2022-11-12T08:18:59;8.73;;;6.45;;
45534;SDS011;35892;48.798;9.698;2022-11-12T08:21:28;10.85;;;6.65;;
45534;SDS011;35892;48.798;9.698;2022-11-12T08:23:55;10.68;;;7.43;;
45534;SDS011;35892;48.798;9.698;2022-11-12T08:26:24;10.55;;;8.43;;
45534;SDS011;35892;48.798;9.698;2022-11-12T08:28:51;10.93;;;8.73;;
45534;SDS011;35892;48.798;9.698;2022-11-12T08:31:18;13.32;;;8.63;;
45534;SDS011;35892;48.798;9.698;2022-11-12T08:33:47;8.88;;;6.75;;
45534;SDS011;35892;48.798;9.698;2022-11-12T08:36:19;8.23;;;6.28;;
45534;SDS011;35892;48.798;9.698;2022-11-12T08:38:46;9.93;;;7.60;;
45534;SDS011;35892;48.798;9.698;2022-11-12T08:41:13;8.65;;;5.95;;
45534;SDS011;35892;48.798;9.698;2022-11-12T08:43:41;10.00;;;7.90;;
45534;SDS011;35892;48.798;9.698;2022-11-12T08:46:08;8.32;;;6.10;;
45534;SDS011;35892;48.798;9.698;2022-11-12T08:48:35;9.50;;;7.50;;
45534;SDS011;35892;48.798;9.698;2022-11-12T08:51:03;8.95;;;7.50;;
45534;SDS011;35892;48.798;9.698;2022-11-12T08:53:31;8.13;;;6.70;;
45534;SDS011;35892;48.798;9.698;2022-11-12T08:56:00;9.52;;;7.72;;
45534;SDS011;35892;48.798;9.698;2022-11-12T08:58:27;8.20;;;6.57;;
45534;SDS011;35892;48.798;9.698;2022-11-12T09:00:55;9.38;;;7.20;;
45534;SDS011;35892;48.798;9.698;2022-11-12T09:03:24;9.23;;;7.50;;
45534;SDS011;35892;48.798;9.698;2022-11-12T09:05:54;10.15;;;8.40;;
45534;SDS011;35892;48.798;9.698;2022-11-12T09:08:23;10.48;;;8.68;;
45534;SDS011;35892;48.798;9.698;2022-11-12T09:10:56;9.50;;;7.80;;
45534;SDS011;35892;48.798;9.698;2022-11-12T09:13:25;9.77;;;7.90;;
45534;SDS011;35892;48.798;9.698;2022-11-12T09:15:58;11.23;;;7.77;;
45534;SDS011;35892;48.798;9.698;2022-11-12T09:18:29;15.18;;;10.07;;
45534;SDS011;35892;48.798;9.698;2022-11-12T09:21:06;14.18;;;9.80;;
45534;SDS011;35892;48.798;9.698;2022-11-12T09:23:37;11.85;;;9.27;;
45534;SDS011;35892;48.798;9.698;2022-11-12T09:26:04;13.45;;;9.60;;
45534;SDS011;35892;48.798;9.698;2022-11-12T09:28:36;11.52;;;9.18;;
45534;SDS011;35892;48.798;9.698;2022-11-12T09:31:05;11.57;;;8.40;;
45534;SDS011;35892;48.798;9.698;2022-11-12T09:33:34;7.53;;;6.15;;
45534;SDS011;35892;48.798;9.698;2022-11-12T09:36:03;8.85;;;6.95;;
45534;SDS011;35892;48.798;9.698;2022-11-12T09:38:35;6.10;;;5.50;;
45534;SDS011;35892;48.798;9.698;2022-11-12T09:41:09;8.30;;;6.80;;
45534;SDS011;35892;48.798;9.698;2022-11-12T09:43:44;7.55;;;5.97;;
45534;SDS011;35892;48.798;9.698;2022-11-12T09:49:22;6.43;;;5.47;;
45534;SDS011;35892;48.798;9.698;2022-11-12T09:52:03;5.50;;;5.00;;
45534;SDS011;35892;48.798;9.698;2022-11-12T09:54:39;6.28;;;4.68;;
45534;SDS011;35892;48.798;9.698;2022-11-12T09:57:10;5.00;;;4.18;;
45534;SDS011;35892;48.798;9.698;2022-11-12T09:59:41;5.20;;;4.70;;
45534;SDS011;35892;48.798;9.698;2022-11-12T10:05:23;5.28;;;4.78;;
45534;SDS011;35892;48.798;9.698;2022-11-12T10:13:42;5.68;;;5.07;;
45534;SDS011;35892;48.798;9.698;2022-11-12T10:16:56;5.28;;;4.50;;
45534;SDS011;35892;48.798;9.698;2022-11-12T10:22:02;5.55;;;4.35;;
45534;SDS011;35892;48.798;9.698;2022-11-12T10:24:35;4.90;;;4.32;;
45534;SDS011;35892;48.798;9.698;2022-11-12T10:27:12;5.88;;;4.13;;
45534;SDS011;35892;48.798;9.698;2022-11-12T10:32:27;5.75;;;4.60;;
45534;SDS011;35892;48.798;9.698;2022-11-12T10:34:59;4.15;;;3.75;;
45534;SDS011;35892;48.798;9.698;2022-11-12T10:45:27;5.43;;;4.70;;
45534;SDS011;35892;48.798;9.698;2022-11-12T10:47:57;6.25;;;5.30;;
45534;SDS011;35892;48.798;9.698;2022-11-12T10:53:03;4.13;;;3.72;;
45534;SDS011;35892;48.798;9.698;2022-11-12T10:55:34;5.67;;;4.00;;
45534;SDS011;35892;48.798;9.698;2022-11-12T11:00:40;4.80;;;4.25;;
45534;SDS011;35892;48.798;9.698;2022-11-12T11:03:23;5.50;;;4.70;;
45534;SDS011;35892;48.798;9.698;2022-11-12T11:06:03;5.75;;;4.45;;
45534;SDS011;35892;48.798;9.698;2022-11-12T11:14:44;4.63;;;3.65;;
45534;SDS011;35892;48.798;9.698;2022-11-12T11:16:59;4.70;;;4.20;;
45534;SDS011;35892;48.798;9.698;2022-11-12T11:19:37;4.20;;;3.80;;
45534;SDS011;35892;48.798;9.698;2022-11-12T11:22:35;6.18;;;4.38;;
45534;SDS011;35892;48.798;9.698;2022-11-12T11:25:16;5.40;;;3.80;;
45534;SDS011;35892;48.798;9.698;2022-11-12T11:30:30;4.93;;;4.05;;
45534;SDS011;35892;48.798;9.698;2022-11-12T11:52:47;6.30;;;3.85;;
45534;SDS011;35892;48.798;9.698;2022-11-12T11:55:42;3.42;;;3.13;;
45534;SDS011;35892;48.798;9.698;2022-11-12T12:03:50;3.83;;;3.42;;
45534;SDS011;35892;48.798;9.698;2022-11-12T12:06:48;4.25;;;3.72;;
45534;SDS011;35892;48.798;9.698;2022-11-12T12:23:26;4.25;;;3.38;;
45534;SDS011;35892;48.798;9.698;2022-11-12T12:26:02;4.05;;;2.75;;
45534;SDS011;35892;48.798;9.698;2022-11-12T12:31:34;3.40;;;3.10;;
45534;SDS011;35892;48.798;9.698;2022-11-12T12:34:18;7.03;;;3.20;;
45534;SDS011;35892;48.798;9.698;2022-11-12T12:36:46;3.60;;;3.08;;
45534;SDS011;35892;48.798;9.698;2022-11-12T12:39:24;3.20;;;2.88;;
45534;SDS011;35892;48.798;9.698;2022-11-12T12:44:32;4.22;;;3.20;;
45534;SDS011;35892;48.798;9.698;2022-11-12T12:47:24;4.72;;;3.13;;
45534;SDS011;35892;48.798;9.698;2022-11-12T12:49:56;3.25;;;2.95;;
45534;SDS011;35892;48.798;9.698;2022-11-12T12:52:27;3.10;;;2.77;;
45534;SDS011;35892;48.798;9.698;2022-11-12T12:54:56;3.05;;;2.65;;
45534;SDS011;35892;48.798;9.698;2022-11-12T12:57:37;4.85;;;3.50;;
45534;SDS011;35892;48.798;9.698;2022-11-12T13:00:25;3.80;;;3.40;;
45534;SDS011;35892;48.798;9.698;2022-11-12T13:03:11;3.50;;;3.10;;
45534;SDS011;35892;48.798;9.698;2022-11-12T13:05:38;3.38;;;2.83;;
45534;SDS011;35892;48.798;9.698;2022-11-12T13:08:09;3.90;;;2.60;;
45534;SDS011;35892;48.798;9.698;2022-11-12T13:10:48;4.40;;;3.15;;
45534;SDS011;35892;48.798;9.698;2022-11-12T13:15:55;3.35;;;2.45;;
45534;SDS011;35892;48.798;9.698;2022-11-12T13:26:45;3.63;;;2.78;;
45534;SDS011;35892;48.798;9.698;2022-11-12T13:40:14;3.50;;;2.10;;
45534;SDS011;35892;48.798;9.698;2022-11-12T13:42:47;3.55;;;2.53;;
45534;SDS011;35892;48.798;9.698;2022-11-12T13:45:21;3.30;;;2.90;;
45534;SDS011;35892;48.798;9.698;2022-11-12T13:47:52;3.55;;;2.80;;
45534;SDS011;35892;48.798;9.698;2022-11-12T13:50:21;3.03;;;2.10;;
45534;SDS011;35892;48.798;9.698;2022-11-12T13:52:51;3.05;;;2.63;;
45534;SDS011;35892;48.798;9.698;2022-11-12T13:55:19;3.05;;;2.75;;
45534;SDS011;35892;48.798;9.698;2022-11-12T13:57:48;3.20;;;2.70;;
45534;SDS011;35892;48.798;9.698;2022-11-12T14:00:24;3.95;;;2.90;;
45534;SDS011;35892;48.798;9.698;2022-11-12T14:03:02;4.30;;;3.00;;
45534;SDS011;35892;48.798;9.698;2022-11-12T14:05:32;6.05;;;4.18;;
45534;SDS011;35892;48.798;9.698;2022-11-12T14:18:39;6.05;;;4.68;;
45534;SDS011;35892;48.798;9.698;2022-11-12T14:21:29;7.13;;;5.45;;
45534;SDS011;35892;48.798;9.698;2022-11-12T14:23:56;5.55;;;4.90;;
45534;SDS011;35892;48.798;9.698;2022-11-12T14:26:40;5.82;;;4.75;;
45534;SDS011;35892;48.798;9.698;2022-11-12T14:29:17;4.10;;;3.50;;
45534;SDS011;35892;48.798;9.698;2022-11-12T14:31:46;3.80;;;3.20;;
45534;SDS011;35892;48.798;9.698;2022-11-12T14:36:56;8.70;;;6.13;;
45534;SDS011;35892;48.798;9.698;2022-11-12T14:39:27;11.60;;;7.72;;
45534;SDS011;35892;48.798;9.698;2022-11-12T14:41:56;8.95;;;6.97;;
45534;SDS011;35892;48.798;9.698;2022-11-12T14:44:31;9.35;;;7.78;;
45534;SDS011;35892;48.798;9.698;2022-11-12T14:47:04;8.63;;;7.18;;
45534;SDS011;35892;48.798;9.698;2022-11-12T14:49:43;9.50;;;5.43;;
45534;SDS011;35892;48.798;9.698;2022-11-12T14:52:25;7.22;;;5.10;;
45534;SDS011;35892;48.798;9.698;2022-11-12T14:54:59;6.43;;;5.00;;
45534;SDS011;35892;48.798;9.698;2022-11-12T14:57:36;5.10;;;3.20;;
45534;SDS011;35892;48.798;9.698;2022-11-12T15:00:20;5.78;;;2.78;;
45534;SDS011;35892;48.798;9.698;2022-11-12T15:03:14;4.53;;;3.53;;
45534;SDS011;35892;48.798;9.698;2022-11-12T15:08:27;5.68;;;4.95;;
45534;SDS011;35892;48.798;9.698;2022-11-12T15:13:47;4.75;;;3.38;;
45534;SDS011;35892;48.798;9.698;2022-11-12T15:16:17;4.03;;;2.80;;
45534;SDS011;35892;48.798;9.698;2022-11-12T15:27:01;3.30;;;2.85;;
45534;SDS011;35892;48.798;9.698;2022-11-12T15:29:47;4.55;;;2.78;;
45534;SDS011;35892;48.798;9.698;2022-11-12T15:34:45;3.08;;;2.58;;
45534;SDS011;35892;48.798;9.698;2022-11-12T15:39:51;3.15;;;2.70;;
45534;SDS011;35892;48.798;9.698;2022-11-12T15:42:37;4.13;;;2.75;;
45534;SDS011;35892;48.798;9.698;2022-11-12T15:45:11;3.72;;;2.92;;
45534;SDS011;35892;48.798;9.698;2022-11-12T15:47:49;3.05;;;2.60;;
45534;SDS011;35892;48.798;9.698;2022-11-12T15:50:19;3.60;;;2.95;;
45534;SDS011;35892;48.798;9.698;2022-11-12T15:52:51;4.03;;;2.72;;
45534;SDS011;35892;48.798;9.698;2022-11-12T15:55:21;3.50;;;3.20;;
45534;SDS011;35892;48.798;9.698;2022-11-12T15:57:51;4.80;;;3.30;;
45534;SDS011;35892;48.798;9.698;2022-11-12T16:05:45;57.47;;;19.48;;
45534;SDS011;35892;48.798;9.698;2022-11-12T16:08:14;40.90;;;17.17;;
45534;SDS011;35892;48.798;9.698;2022-11-12T16:10:48;11.50;;;6.00;;
45534;SDS011;35892;48.798;9.698;2022-11-12T16:13:26;6.22;;;4.38;;
45534;SDS011;35892;48.798;9.698;2022-11-12T16:15:56;3.88;;;3.47;;
45534;SDS011;35892;48.798;9.698;2022-11-12T16:18:23;5.22;;;3.22;;
45534;SDS011;35892;48.798;9.698;2022-11-12T16:20:52;5.18;;;4.07;;
45534;SDS011;35892;48.798;9.698;2022-11-12T16:23:21;5.57;;;4.10;;
45534;SDS011;35892;48.798;9.698;2022-11-12T16:25:47;4.95;;;4.05;;
45534;SDS011;35892;48.798;9.698;2022-11-12T16:28:15;7.53;;;5.63;;
45534;SDS011;35892;48.798;9.698;2022-11-12T16:30:43;6.05;;;4.95;;
45534;SDS011;35892;48.798;9.698;2022-11-12T16:33:13;5.07;;;4.18;;
45534;SDS011;35892;48.798;9.698;2022-11-12T16:35:46;5.82;;;3.63;;
45534;SDS011;35892;48.798;9.698;2022-11-12T16:38:13;6.40;;;4.15;;
45534;SDS011;35892;48.798;9.698;2022-11-12T16:40:43;4.85;;;4.10;;
45534;SDS011;35892;48.798;9.698;2022-11-12T16:43:12;4.82;;;4.00;;
45534;SDS011;35892;48.798;9.698;2022-11-12T16:45:40;3.92;;;3.45;;
45534;SDS011;35892;48.798;9.698;2022-11-12T16:48:14;5.47;;;3.90;;
45534;SDS011;35892;48.798;9.698;2022-11-12T16:50:45;5.38;;;3.55;;
45534;SDS011;35892;48.798;9.698;2022-11-12T16:53:12;7.13;;;4.70;;
45534;SDS011;35892;48.798;9.698;2022-11-12T16:55:40;6.72;;;4.00;;
45534;SDS011;35892;48.798;9.698;2022-11-12T16:58:11;5.60;;;3.88;;
45534;SDS011;35892;48.798;9.698;2022-11-12T17:00:43;11.52;;;8.00;;
45534;SDS011;35892;48.798;9.698;2022-11-12T17:03:12;7.75;;;5.40;;
45534;SDS011;35892;48.798;9.698;2022-11-12T17:05:39;4.25;;;3.25;;
45534;SDS011;35892;48.798;9.698;2022-11-12T17:08:07;4.25;;;3.40;;
45534;SDS011;35892;48.798;9.698;2022-11-12T17:10:37;4.47;;;3.97;;
45534;SDS011;35892;48.798;9.698;2022-11-12T17:13:10;3.67;;;3.08;;
45534;SDS011;35892;48.798;9.698;2022-11-12T17:15:38;5.80;;;3.35;;
45534;SDS011;35892;48.798;9.698;2022-11-12T17:18:05;5.13;;;4.03;;
45534;SDS011;35892;48.798;9.698;2022-11-12T17:20:32;5.70;;;3.50;;
45534;SDS011;35892;48.798;9.698;2022-11-12T17:23:01;5.63;;;3.28;;
45534;SDS011;35892;48.798;9.698;2022-11-12T17:25:28;6.28;;;4.30;;
45534;SDS011;35892;48.798;9.698;2022-11-12T17:27:57;6.30;;;4.35;;
45534;SDS011;35892;48.798;9.698;2022-11-12T17:30:29;7.10;;;4.78;;
45534;SDS011;35892;48.798;9.698;2022-11-12T17:32:57;6.88;;;4.63;;
45534;SDS011;35892;48.798;9.698;2022-11-12T17:35:27;7.20;;;5.75;;
45534;SDS011;35892;48.798;9.698;2022-11-12T17:37:54;5.55;;;4.60;;
45534;SDS011;35892;48.798;9.698;2022-11-12T17:40:23;5.35;;;4.10;;
45534;SDS011;35892;48.798;9.698;2022-11-12T17:42:53;6.43;;;5.10;;
45534;SDS011;35892;48.798;9.698;2022-11-12T17:45:24;7.70;;;5.78;;
45534;SDS011;35892;48.798;9.698;2022-11-12T17:47:53;7.38;;;5.47;;
45534;SDS011;35892;48.798;9.698;2022-11-12T17:50:20;5.00;;;4.50;;
45534;SDS011;35892;48.798;9.698;2022-11-12T17:52:49;5.07;;;4.55;;
45534;SDS011;35892;48.798;9.698;2022-11-12T17:55:18;7.60;;;3.90;;